sensor_id;sensor_type;location;lat;lon;timestamp;temperature;humidity
10057;DHT22;5068;51.286;7.518;2024-03-06T00:01:12;3.80;67.80
10057;DHT22;5068;51.286;7.518;2024-03-06T00:02:45;3.80;67.80
10057;DHT22;5068;51.286;7.518;2024-03-06T00:04:17;3.80;67.70
10057;DHT22;5068;51.286;7.518;2024-03-06T00:05:51;3.80;67.80
10057;DHT22;5068;51.286;7.518;2024-03-06T00:07:23;3.80;67.70
10057;DHT22;5068;51.286;7.518;2024-03-06T00:08:58;3.80;68.30
10057;DHT22;5068;51.286;7.518;2024-03-06T00:10:30;3.90;67.60
10057;DHT22;5068;51.286;7.518;2024-03-06T00:12:04;3.90;67.50
10057;DHT22;5068;51.286;7.518;2024-03-06T00:13:38;3.90;67.40
10057;DHT22;5068;51.286;7.518;2024-03-06T00:15:11;3.90;67.20
10057;DHT22;5068;51.286;7.518;2024-03-06T00:16:43;3.90;67.00
10057;DHT22;5068;51.286;7.518;2024-03-06T00:18:16;3.90;66.90
10057;DHT22;5068;51.286;7.518;2024-03-06T00:19:57;3.90;66.70
10057;DHT22;5068;51.286;7.518;2024-03-06T00:21:31;3.90;66.70
10057;DHT22;5068;51.286;7.518;2024-03-06T00:23:03;3.90;66.50
10057;DHT22;5068;51.286;7.518;2024-03-06T00:24:38;3.80;66.50
10057;DHT22;5068;51.286;7.518;2024-03-06T00:26:10;3.90;66.50
10057;DHT22;5068;51.286;7.518;2024-03-06T00:27:44;3.90;66.70
10057;DHT22;5068;51.286;7.518;2024-03-06T00:29:16;3.80;66.60
10057;DHT22;5068;51.286;7.518;2024-03-06T00:30:50;3.80;66.70
10057;DHT22;5068;51.286;7.518;2024-03-06T00:32:22;3.80;66.80
10057;DHT22;5068;51.286;7.518;2024-03-06T00:33:55;3.80;66.80
10057;DHT22;5068;51.286;7.518;2024-03-06T00:35:28;3.80;67.00
10057;DHT22;5068;51.286;7.518;2024-03-06T00:37:01;3.80;67.00
10057;DHT22;5068;51.286;7.518;2024-03-06T00:38:34;3.80;67.00
10057;DHT22;5068;51.286;7.518;2024-03-06T00:40:09;3.80;67.00
10057;DHT22;5068;51.286;7.518;2024-03-06T00:41:43;3.80;67.00
10057;DHT22;5068;51.286;7.518;2024-03-06T00:43:16;3.80;67.10
10057;DHT22;5068;51.286;7.518;2024-03-06T00:44:48;3.80;67.10
10057;DHT22;5068;51.286;7.518;2024-03-06T00:46:21;3.80;67.10
10057;DHT22;5068;51.286;7.518;2024-03-06T00:47:54;3.80;67.00
10057;DHT22;5068;51.286;7.518;2024-03-06T00:49:27;3.80;67.00
10057;DHT22;5068;51.286;7.518;2024-03-06T00:50:59;3.80;67.10
10057;DHT22;5068;51.286;7.518;2024-03-06T00:52:32;3.80;67.00
10057;DHT22;5068;51.286;7.518;2024-03-06T00:54:05;3.70;67.00
10057;DHT22;5068;51.286;7.518;2024-03-06T00:55:39;3.80;67.10
10057;DHT22;5068;51.286;7.518;2024-03-06T00:57:12;3.80;67.10
10057;DHT22;5068;51.286;7.518;2024-03-06T00:58:45;3.80;67.90
10057;DHT22;5068;51.286;7.518;2024-03-06T01:00:19;3.90;67.30
10057;DHT22;5068;51.286;7.518;2024-03-06T01:01:53;3.80;67.20
10057;DHT22;5068;51.286;7.518;2024-03-06T01:03:28;3.80;67.10
10057;DHT22;5068;51.286;7.518;2024-03-06T01:05:01;3.80;67.10
10057;DHT22;5068;51.286;7.518;2024-03-06T01:06:35;3.90;67.20
10057;DHT22;5068;51.286;7.518;2024-03-06T01:08:09;3.90;67.20
10057;DHT22;5068;51.286;7.518;2024-03-06T01:09:41;3.90;67.10
10057;DHT22;5068;51.286;7.518;2024-03-06T01:11:16;3.90;67.10
10057;DHT22;5068;51.286;7.518;2024-03-06T01:12:48;3.90;66.90
10057;DHT22;5068;51.286;7.518;2024-03-06T01:14:22;3.90;66.90
10057;DHT22;5068;51.286;7.518;2024-03-06T01:15:55;3.90;66.90
10057;DHT22;5068;51.286;7.518;2024-03-06T01:17:27;3.90;66.90
10057;DHT22;5068;51.286;7.518;2024-03-06T01:19:00;3.90;66.90
10057;DHT22;5068;51.286;7.518;2024-03-06T01:20:33;3.90;66.80
10057;DHT22;5068;51.286;7.518;2024-03-06T01:22:06;3.90;66.80
10057;DHT22;5068;51.286;7.518;2024-03-06T01:23:38;3.90;66.80
10057;DHT22;5068;51.286;7.518;2024-03-06T01:25:12;3.90;67.60
10057;DHT22;5068;51.286;7.518;2024-03-06T01:26:45;3.90;66.90
10057;DHT22;5068;51.286;7.518;2024-03-06T01:28:18;3.90;66.80
10057;DHT22;5068;51.286;7.518;2024-03-06T01:29:51;3.90;66.90
10057;DHT22;5068;51.286;7.518;2024-03-06T01:31:24;3.90;66.90
10057;DHT22;5068;51.286;7.518;2024-03-06T01:32:56;3.90;66.90
10057;DHT22;5068;51.286;7.518;2024-03-06T01:34:30;3.90;66.90
10057;DHT22;5068;51.286;7.518;2024-03-06T01:36:02;3.90;67.00
10057;DHT22;5068;51.286;7.518;2024-03-06T01:37:35;3.90;67.00
10057;DHT22;5068;51.286;7.518;2024-03-06T01:39:07;3.90;67.00
10057;DHT22;5068;51.286;7.518;2024-03-06T01:40:43;3.90;66.90
10057;DHT22;5068;51.286;7.518;2024-03-06T01:42:17;3.90;67.10
10057;DHT22;5068;51.286;7.518;2024-03-06T01:43:51;3.90;67.20
10057;DHT22;5068;51.286;7.518;2024-03-06T01:45:23;3.90;67.00
10057;DHT22;5068;51.286;7.518;2024-03-06T01:46:57;3.90;66.90
10057;DHT22;5068;51.286;7.518;2024-03-06T01:48:30;3.90;67.00
10057;DHT22;5068;51.286;7.518;2024-03-06T01:50:05;3.90;67.10
10057;DHT22;5068;51.286;7.518;2024-03-06T01:51:41;3.90;67.10
10057;DHT22;5068;51.286;7.518;2024-03-06T01:53:18;3.90;67.00
10057;DHT22;5068;51.286;7.518;2024-03-06T01:54:51;3.90;67.00
10057;DHT22;5068;51.286;7.518;2024-03-06T01:56:25;3.90;67.00
10057;DHT22;5068;51.286;7.518;2024-03-06T01:58:00;3.90;67.10
10057;DHT22;5068;51.286;7.518;2024-03-06T01:59:33;3.90;67.10
10057;DHT22;5068;51.286;7.518;2024-03-06T02:01:09;3.90;67.10
10057;DHT22;5068;51.286;7.518;2024-03-06T02:02:42;3.90;67.10
10057;DHT22;5068;51.286;7.518;2024-03-06T02:04:15;3.80;67.10
10057;DHT22;5068;51.286;7.518;2024-03-06T02:05:51;3.90;67.20
10057;DHT22;5068;51.286;7.518;2024-03-06T02:07:25;3.90;67.40
10057;DHT22;5068;51.286;7.518;2024-03-06T02:09:00;3.80;67.30
10057;DHT22;5068;51.286;7.518;2024-03-06T02:10:35;3.80;67.30
10057;DHT22;5068;51.286;7.518;2024-03-06T02:12:08;3.80;67.40
10057;DHT22;5068;51.286;7.518;2024-03-06T02:13:43;3.80;67.50
10057;DHT22;5068;51.286;7.518;2024-03-06T02:15:16;3.90;67.60
10057;DHT22;5068;51.286;7.518;2024-03-06T02:16:49;3.90;67.60
10057;DHT22;5068;51.286;7.518;2024-03-06T02:18:23;3.90;67.50
10057;DHT22;5068;51.286;7.518;2024-03-06T02:19:56;3.90;67.40
10057;DHT22;5068;51.286;7.518;2024-03-06T02:21:31;3.90;67.40
10057;DHT22;5068;51.286;7.518;2024-03-06T02:23:04;3.90;67.30
10057;DHT22;5068;51.286;7.518;2024-03-06T02:24:37;3.90;67.20
10057;DHT22;5068;51.286;7.518;2024-03-06T02:26:11;3.90;67.30
10057;DHT22;5068;51.286;7.518;2024-03-06T02:27:45;3.90;67.20
10057;DHT22;5068;51.286;7.518;2024-03-06T02:29:20;3.90;67.30
10057;DHT22;5068;51.286;7.518;2024-03-06T02:30:55;3.90;67.20
10057;DHT22;5068;51.286;7.518;2024-03-06T02:32:29;3.90;67.10
10057;DHT22;5068;51.286;7.518;2024-03-06T02:34:02;3.90;67.00
10057;DHT22;5068;51.286;7.518;2024-03-06T02:35:38;3.90;67.00
10057;DHT22;5068;51.286;7.518;2024-03-06T02:37:13;3.90;67.10
10057;DHT22;5068;51.286;7.518;2024-03-06T02:38:46;3.90;67.20
10057;DHT22;5068;51.286;7.518;2024-03-06T02:40:19;3.80;67.10
10057;DHT22;5068;51.286;7.518;2024-03-06T02:41:52;3.80;67.10
10057;DHT22;5068;51.286;7.518;2024-03-06T02:43:25;3.90;67.20
10057;DHT22;5068;51.286;7.518;2024-03-06T02:44:58;3.80;67.10
10057;DHT22;5068;51.286;7.518;2024-03-06T02:46:31;3.90;67.20
10057;DHT22;5068;51.286;7.518;2024-03-06T02:48:05;3.90;67.20
10057;DHT22;5068;51.286;7.518;2024-03-06T02:49:39;3.90;67.40
10057;DHT22;5068;51.286;7.518;2024-03-06T02:51:12;3.90;67.30
10057;DHT22;5068;51.286;7.518;2024-03-06T02:52:52;3.90;67.30
10057;DHT22;5068;51.286;7.518;2024-03-06T02:54:25;3.80;67.00
10057;DHT22;5068;51.286;7.518;2024-03-06T02:55:58;3.90;67.00
10057;DHT22;5068;51.286;7.518;2024-03-06T02:57:31;3.80;66.80
10057;DHT22;5068;51.286;7.518;2024-03-06T02:59:03;3.80;66.60
10057;DHT22;5068;51.286;7.518;2024-03-06T03:00:39;3.80;66.40
10057;DHT22;5068;51.286;7.518;2024-03-06T03:02:13;3.80;66.50
10057;DHT22;5068;51.286;7.518;2024-03-06T03:03:46;3.80;66.30
10057;DHT22;5068;51.286;7.518;2024-03-06T03:05:19;3.80;66.20
10057;DHT22;5068;51.286;7.518;2024-03-06T03:06:52;3.70;66.00
10057;DHT22;5068;51.286;7.518;2024-03-06T03:08:25;3.70;65.90
10057;DHT22;5068;51.286;7.518;2024-03-06T03:09:59;3.70;65.90
10057;DHT22;5068;51.286;7.518;2024-03-06T03:11:31;3.70;65.80
10057;DHT22;5068;51.286;7.518;2024-03-06T03:13:04;3.70;65.70
10057;DHT22;5068;51.286;7.518;2024-03-06T03:14:37;3.70;65.70
10057;DHT22;5068;51.286;7.518;2024-03-06T03:16:15;3.60;65.50
10057;DHT22;5068;51.286;7.518;2024-03-06T03:17:50;3.60;65.60
10057;DHT22;5068;51.286;7.518;2024-03-06T03:19:23;3.60;65.60
10057;DHT22;5068;51.286;7.518;2024-03-06T03:20:56;3.50;65.50
10057;DHT22;5068;51.286;7.518;2024-03-06T03:22:28;3.50;65.70
10057;DHT22;5068;51.286;7.518;2024-03-06T03:24:03;3.50;65.70
10057;DHT22;5068;51.286;7.518;2024-03-06T03:25:37;3.50;65.90
10057;DHT22;5068;51.286;7.518;2024-03-06T03:27:10;3.40;65.90
10057;DHT22;5068;51.286;7.518;2024-03-06T03:28:43;3.40;66.10
10057;DHT22;5068;51.286;7.518;2024-03-06T03:30:17;3.40;66.10
10057;DHT22;5068;51.286;7.518;2024-03-06T03:31:53;3.40;66.10
10057;DHT22;5068;51.286;7.518;2024-03-06T03:33:25;3.40;66.10
10057;DHT22;5068;51.286;7.518;2024-03-06T03:34:58;3.30;66.00
10057;DHT22;5068;51.286;7.518;2024-03-06T03:36:31;3.40;66.00
10057;DHT22;5068;51.286;7.518;2024-03-06T03:38:05;3.30;66.00
10057;DHT22;5068;51.286;7.518;2024-03-06T03:39:38;3.30;66.00
10057;DHT22;5068;51.286;7.518;2024-03-06T03:41:12;3.30;66.00
10057;DHT22;5068;51.286;7.518;2024-03-06T03:42:46;3.30;66.10
10057;DHT22;5068;51.286;7.518;2024-03-06T03:44:18;3.30;66.00
10057;DHT22;5068;51.286;7.518;2024-03-06T03:45:52;3.30;66.10
10057;DHT22;5068;51.286;7.518;2024-03-06T03:47:24;3.30;65.90
10057;DHT22;5068;51.286;7.518;2024-03-06T03:48:57;3.20;65.60
10057;DHT22;5068;51.286;7.518;2024-03-06T03:50:29;3.20;65.50
10057;DHT22;5068;51.286;7.518;2024-03-06T03:52:03;3.20;65.50
10057;DHT22;5068;51.286;7.518;2024-03-06T03:53:36;3.20;65.40
10057;DHT22;5068;51.286;7.518;2024-03-06T03:55:09;3.20;65.50
10057;DHT22;5068;51.286;7.518;2024-03-06T03:56:43;3.20;65.50
10057;DHT22;5068;51.286;7.518;2024-03-06T03:58:16;3.10;65.40
10057;DHT22;5068;51.286;7.518;2024-03-06T03:59:50;3.10;65.50
10057;DHT22;5068;51.286;7.518;2024-03-06T04:01:23;3.10;65.40
10057;DHT22;5068;51.286;7.518;2024-03-06T04:02:56;3.10;65.40
10057;DHT22;5068;51.286;7.518;2024-03-06T04:04:28;3.10;65.30
10057;DHT22;5068;51.286;7.518;2024-03-06T04:06:02;3.20;65.30
10057;DHT22;5068;51.286;7.518;2024-03-06T04:07:34;3.10;65.30
10057;DHT22;5068;51.286;7.518;2024-03-06T04:09:08;3.00;65.50
10057;DHT22;5068;51.286;7.518;2024-03-06T04:10:43;3.00;66.20
10057;DHT22;5068;51.286;7.518;2024-03-06T04:12:16;3.00;65.30
10057;DHT22;5068;51.286;7.518;2024-03-06T04:13:50;3.00;65.30
10057;DHT22;5068;51.286;7.518;2024-03-06T04:15:22;3.00;65.50
10057;DHT22;5068;51.286;7.518;2024-03-06T04:16:55;3.00;65.70
10057;DHT22;5068;51.286;7.518;2024-03-06T04:18:29;3.00;65.70
10057;DHT22;5068;51.286;7.518;2024-03-06T04:20:03;3.00;65.70
10057;DHT22;5068;51.286;7.518;2024-03-06T04:21:40;2.90;65.50
10057;DHT22;5068;51.286;7.518;2024-03-06T04:23:14;2.90;65.30
10057;DHT22;5068;51.286;7.518;2024-03-06T04:24:46;2.90;65.20
10057;DHT22;5068;51.286;7.518;2024-03-06T04:26:21;2.90;65.10
10057;DHT22;5068;51.286;7.518;2024-03-06T04:27:53;2.90;65.10
10057;DHT22;5068;51.286;7.518;2024-03-06T04:29:26;2.90;65.20
10057;DHT22;5068;51.286;7.518;2024-03-06T04:30:58;2.80;65.20
10057;DHT22;5068;51.286;7.518;2024-03-06T04:32:32;2.80;65.30
10057;DHT22;5068;51.286;7.518;2024-03-06T04:34:04;2.80;65.40
10057;DHT22;5068;51.286;7.518;2024-03-06T04:35:38;2.80;65.50
10057;DHT22;5068;51.286;7.518;2024-03-06T04:37:10;2.80;65.50
10057;DHT22;5068;51.286;7.518;2024-03-06T04:38:43;2.80;65.70
10057;DHT22;5068;51.286;7.518;2024-03-06T04:40:16;2.70;65.70
10057;DHT22;5068;51.286;7.518;2024-03-06T04:41:51;2.70;65.90
10057;DHT22;5068;51.286;7.518;2024-03-06T04:43:24;2.70;65.90
10057;DHT22;5068;51.286;7.518;2024-03-06T04:44:57;2.70;66.00
10057;DHT22;5068;51.286;7.518;2024-03-06T04:46:29;2.80;66.20
10057;DHT22;5068;51.286;7.518;2024-03-06T04:48:02;2.70;66.10
10057;DHT22;5068;51.286;7.518;2024-03-06T04:49:35;2.80;66.30
10057;DHT22;5068;51.286;7.518;2024-03-06T04:51:08;2.70;66.20
10057;DHT22;5068;51.286;7.518;2024-03-06T04:52:42;2.70;66.30
10057;DHT22;5068;51.286;7.518;2024-03-06T04:54:16;2.80;66.40
10057;DHT22;5068;51.286;7.518;2024-03-06T04:55:49;2.80;66.50
10057;DHT22;5068;51.286;7.518;2024-03-06T04:57:23;2.80;66.30
10057;DHT22;5068;51.286;7.518;2024-03-06T04:58:56;2.80;66.40
10057;DHT22;5068;51.286;7.518;2024-03-06T05:00:34;2.80;66.30
10057;DHT22;5068;51.286;7.518;2024-03-06T05:02:06;2.80;66.30
10057;DHT22;5068;51.286;7.518;2024-03-06T05:03:40;2.80;66.30
10057;DHT22;5068;51.286;7.518;2024-03-06T05:05:30;2.80;66.30
10057;DHT22;5068;51.286;7.518;2024-03-06T05:07:21;2.80;66.30
10057;DHT22;5068;51.286;7.518;2024-03-06T05:09:12;2.80;66.30
10057;DHT22;5068;51.286;7.518;2024-03-06T05:11:04;2.80;66.30
10057;DHT22;5068;51.286;7.518;2024-03-06T05:12:55;2.80;66.20
10057;DHT22;5068;51.286;7.518;2024-03-06T05:14:46;2.80;66.20
10057;DHT22;5068;51.286;7.518;2024-03-06T05:16:35;2.70;66.10
10057;DHT22;5068;51.286;7.518;2024-03-06T05:18:26;2.70;66.00
10057;DHT22;5068;51.286;7.518;2024-03-06T05:20:17;2.70;66.00
10057;DHT22;5068;51.286;7.518;2024-03-06T05:22:08;2.70;66.10
10057;DHT22;5068;51.286;7.518;2024-03-06T05:23:59;2.70;66.10
10057;DHT22;5068;51.286;7.518;2024-03-06T05:25:50;2.70;66.30
10057;DHT22;5068;51.286;7.518;2024-03-06T05:27:40;2.60;66.30
10057;DHT22;5068;51.286;7.518;2024-03-06T05:29:33;2.60;66.40
10057;DHT22;5068;51.286;7.518;2024-03-06T05:31:23;2.60;66.50
10057;DHT22;5068;51.286;7.518;2024-03-06T05:33:14;2.60;66.50
10057;DHT22;5068;51.286;7.518;2024-03-06T05:35:06;2.50;66.60
10057;DHT22;5068;51.286;7.518;2024-03-06T05:36:59;2.60;67.10
10057;DHT22;5068;51.286;7.518;2024-03-06T05:38:50;2.60;67.10
10057;DHT22;5068;51.286;7.518;2024-03-06T05:40:41;2.50;67.10
10057;DHT22;5068;51.286;7.518;2024-03-06T05:42:34;2.50;67.20
10057;DHT22;5068;51.286;7.518;2024-03-06T05:44:25;2.50;67.30
10057;DHT22;5068;51.286;7.518;2024-03-06T05:46:17;2.50;67.40
10057;DHT22;5068;51.286;7.518;2024-03-06T05:48:09;2.50;67.50
10057;DHT22;5068;51.286;7.518;2024-03-06T05:49:59;2.50;67.60
10057;DHT22;5068;51.286;7.518;2024-03-06T05:51:54;2.50;67.80
10057;DHT22;5068;51.286;7.518;2024-03-06T05:53:45;2.50;67.80
10057;DHT22;5068;51.286;7.518;2024-03-06T05:55:35;2.60;67.90
10057;DHT22;5068;51.286;7.518;2024-03-06T05:57:26;2.50;67.70
10057;DHT22;5068;51.286;7.518;2024-03-06T05:59:16;2.60;67.80
10057;DHT22;5068;51.286;7.518;2024-03-06T06:00:50;2.50;67.80
10057;DHT22;5068;51.286;7.518;2024-03-06T06:02:24;2.60;67.90
10057;DHT22;5068;51.286;7.518;2024-03-06T06:03:58;2.50;67.80
10057;DHT22;5068;51.286;7.518;2024-03-06T06:05:34;2.60;67.90
10057;DHT22;5068;51.286;7.518;2024-03-06T06:07:09;2.60;67.90
10057;DHT22;5068;51.286;7.518;2024-03-06T06:08:41;2.50;67.80
10057;DHT22;5068;51.286;7.518;2024-03-06T06:10:16;2.50;67.90
10057;DHT22;5068;51.286;7.518;2024-03-06T06:11:52;2.60;68.10
10057;DHT22;5068;51.286;7.518;2024-03-06T06:13:26;2.50;68.00
10057;DHT22;5068;51.286;7.518;2024-03-06T06:14:58;2.60;68.00
10057;DHT22;5068;51.286;7.518;2024-03-06T06:16:35;2.60;68.20
10057;DHT22;5068;51.286;7.518;2024-03-06T06:18:09;2.50;68.20
10057;DHT22;5068;51.286;7.518;2024-03-06T06:19:43;2.60;68.40
10057;DHT22;5068;51.286;7.518;2024-03-06T06:21:15;2.60;68.30
10057;DHT22;5068;51.286;7.518;2024-03-06T06:22:50;2.60;68.30
10057;DHT22;5068;51.286;7.518;2024-03-06T06:24:22;2.60;68.40
10057;DHT22;5068;51.286;7.518;2024-03-06T06:25:55;2.60;68.40
10057;DHT22;5068;51.286;7.518;2024-03-06T06:27:28;2.60;68.30
10057;DHT22;5068;51.286;7.518;2024-03-06T06:29:01;2.60;68.40
10057;DHT22;5068;51.286;7.518;2024-03-06T06:30:34;2.60;68.40
10057;DHT22;5068;51.286;7.518;2024-03-06T06:32:07;2.60;68.40
10057;DHT22;5068;51.286;7.518;2024-03-06T06:33:41;2.60;68.30
10057;DHT22;5068;51.286;7.518;2024-03-06T06:35:17;2.60;68.40
10057;DHT22;5068;51.286;7.518;2024-03-06T06:36:49;2.60;68.40
10057;DHT22;5068;51.286;7.518;2024-03-06T06:38:24;2.60;68.60
10057;DHT22;5068;51.286;7.518;2024-03-06T06:39:56;2.60;68.60
10057;DHT22;5068;51.286;7.518;2024-03-06T06:41:31;2.60;69.50
10057;DHT22;5068;51.286;7.518;2024-03-06T06:43:04;2.60;68.70
10057;DHT22;5068;51.286;7.518;2024-03-06T06:44:37;2.70;68.90
10057;DHT22;5068;51.286;7.518;2024-03-06T06:46:10;2.60;68.80
10057;DHT22;5068;51.286;7.518;2024-03-06T06:47:50;2.70;68.90
10057;DHT22;5068;51.286;7.518;2024-03-06T06:49:31;2.60;68.90
10057;DHT22;5068;51.286;7.518;2024-03-06T06:51:06;2.70;68.90
10057;DHT22;5068;51.286;7.518;2024-03-06T06:52:38;2.70;68.90
10057;DHT22;5068;51.286;7.518;2024-03-06T06:54:12;2.70;68.90
10057;DHT22;5068;51.286;7.518;2024-03-06T06:55:44;2.70;68.90
10057;DHT22;5068;51.286;7.518;2024-03-06T06:57:17;2.70;68.90
10057;DHT22;5068;51.286;7.518;2024-03-06T06:58:51;2.70;69.10
10057;DHT22;5068;51.286;7.518;2024-03-06T07:00:25;2.70;69.20
10057;DHT22;5068;51.286;7.518;2024-03-06T07:01:57;2.70;69.20
10057;DHT22;5068;51.286;7.518;2024-03-06T07:03:31;2.70;69.30
10057;DHT22;5068;51.286;7.518;2024-03-06T07:05:05;2.70;69.30
10057;DHT22;5068;51.286;7.518;2024-03-06T07:06:40;2.70;69.40
10057;DHT22;5068;51.286;7.518;2024-03-06T07:08:13;2.90;69.60
10057;DHT22;5068;51.286;7.518;2024-03-06T07:09:46;2.70;69.40
10057;DHT22;5068;51.286;7.518;2024-03-06T07:11:19;2.80;69.50
10057;DHT22;5068;51.286;7.518;2024-03-06T07:12:52;2.80;69.60
10057;DHT22;5068;51.286;7.518;2024-03-06T07:14:25;2.80;69.60
10057;DHT22;5068;51.286;7.518;2024-03-06T07:15:58;2.80;69.70
10057;DHT22;5068;51.286;7.518;2024-03-06T07:17:31;2.80;69.70
10057;DHT22;5068;51.286;7.518;2024-03-06T07:19:03;2.80;69.80
10057;DHT22;5068;51.286;7.518;2024-03-06T07:20:39;2.80;69.90
10057;DHT22;5068;51.286;7.518;2024-03-06T07:22:13;2.80;70.00
10057;DHT22;5068;51.286;7.518;2024-03-06T07:23:46;2.90;70.00
10057;DHT22;5068;51.286;7.518;2024-03-06T07:25:19;2.90;70.00
10057;DHT22;5068;51.286;7.518;2024-03-06T07:26:53;2.90;70.00
10057;DHT22;5068;51.286;7.518;2024-03-06T07:28:25;2.90;70.10
10057;DHT22;5068;51.286;7.518;2024-03-06T07:29:59;2.90;70.10
10057;DHT22;5068;51.286;7.518;2024-03-06T07:31:31;2.90;70.10
10057;DHT22;5068;51.286;7.518;2024-03-06T07:33:05;3.00;70.10
10057;DHT22;5068;51.286;7.518;2024-03-06T07:34:37;3.00;70.20
10057;DHT22;5068;51.286;7.518;2024-03-06T07:36:12;3.00;70.20
10057;DHT22;5068;51.286;7.518;2024-03-06T07:37:45;3.00;70.10
10057;DHT22;5068;51.286;7.518;2024-03-06T07:39:19;3.00;69.90
10057;DHT22;5068;51.286;7.518;2024-03-06T07:40:52;3.00;70.00
10057;DHT22;5068;51.286;7.518;2024-03-06T07:42:26;3.00;69.90
10057;DHT22;5068;51.286;7.518;2024-03-06T07:43:58;3.10;69.90
10057;DHT22;5068;51.286;7.518;2024-03-06T07:45:32;3.10;69.90
10057;DHT22;5068;51.286;7.518;2024-03-06T07:47:04;3.10;69.80
10057;DHT22;5068;51.286;7.518;2024-03-06T07:48:41;3.10;69.80
10057;DHT22;5068;51.286;7.518;2024-03-06T07:50:13;3.10;69.80
10057;DHT22;5068;51.286;7.518;2024-03-06T07:51:52;3.10;69.70
10057;DHT22;5068;51.286;7.518;2024-03-06T07:53:25;3.10;69.60
10057;DHT22;5068;51.286;7.518;2024-03-06T07:54:58;3.10;69.50
10057;DHT22;5068;51.286;7.518;2024-03-06T07:56:30;3.10;69.50
10057;DHT22;5068;51.286;7.518;2024-03-06T07:58:04;3.10;69.50
10057;DHT22;5068;51.286;7.518;2024-03-06T07:59:36;3.10;69.50
10057;DHT22;5068;51.286;7.518;2024-03-06T08:01:10;3.10;69.50
10057;DHT22;5068;51.286;7.518;2024-03-06T08:02:42;3.20;69.70
10057;DHT22;5068;51.286;7.518;2024-03-06T08:04:16;3.10;69.50
10057;DHT22;5068;51.286;7.518;2024-03-06T08:05:50;3.20;69.60
10057;DHT22;5068;51.286;7.518;2024-03-06T08:07:25;3.10;69.60
10057;DHT22;5068;51.286;7.518;2024-03-06T08:08:58;3.10;69.70
10057;DHT22;5068;51.286;7.518;2024-03-06T08:10:34;3.20;69.90
10057;DHT22;5068;51.286;7.518;2024-03-06T08:12:07;3.20;69.90
10057;DHT22;5068;51.286;7.518;2024-03-06T08:13:41;3.20;69.90
10057;DHT22;5068;51.286;7.518;2024-03-06T08:15:14;3.20;69.90
10057;DHT22;5068;51.286;7.518;2024-03-06T08:16:47;3.20;70.00
10057;DHT22;5068;51.286;7.518;2024-03-06T08:18:20;3.20;69.90
10057;DHT22;5068;51.286;7.518;2024-03-06T08:19:53;3.20;69.90
10057;DHT22;5068;51.286;7.518;2024-03-06T08:21:26;3.20;70.00
10057;DHT22;5068;51.286;7.518;2024-03-06T08:23:01;3.20;70.10
10057;DHT22;5068;51.286;7.518;2024-03-06T08:24:34;3.30;70.30
10057;DHT22;5068;51.286;7.518;2024-03-06T08:26:06;3.30;70.30
10057;DHT22;5068;51.286;7.518;2024-03-06T08:27:40;3.30;70.30
10057;DHT22;5068;51.286;7.518;2024-03-06T08:29:14;3.30;70.50
10057;DHT22;5068;51.286;7.518;2024-03-06T08:30:47;3.30;70.50
10057;DHT22;5068;51.286;7.518;2024-03-06T08:32:19;3.30;70.50
10057;DHT22;5068;51.286;7.518;2024-03-06T08:33:52;3.40;70.70
10057;DHT22;5068;51.286;7.518;2024-03-06T08:35:26;3.40;70.90
10057;DHT22;5068;51.286;7.518;2024-03-06T08:36:58;3.40;70.90
10057;DHT22;5068;51.286;7.518;2024-03-06T08:38:33;3.40;71.00
10057;DHT22;5068;51.286;7.518;2024-03-06T08:40:07;3.50;71.10
10057;DHT22;5068;51.286;7.518;2024-03-06T08:41:42;3.50;71.20
10057;DHT22;5068;51.286;7.518;2024-03-06T08:43:15;3.50;71.10
10057;DHT22;5068;51.286;7.518;2024-03-06T08:44:47;3.60;71.20
10057;DHT22;5068;51.286;7.518;2024-03-06T08:46:21;3.60;71.20
10057;DHT22;5068;51.286;7.518;2024-03-06T08:47:53;3.60;71.10
10057;DHT22;5068;51.286;7.518;2024-03-06T08:49:26;3.70;71.30
10057;DHT22;5068;51.286;7.518;2024-03-06T08:50:59;3.70;71.40
10057;DHT22;5068;51.286;7.518;2024-03-06T08:52:32;3.70;72.20
10057;DHT22;5068;51.286;7.518;2024-03-06T08:54:07;3.80;71.60
10057;DHT22;5068;51.286;7.518;2024-03-06T08:55:45;3.80;71.70
10057;DHT22;5068;51.286;7.518;2024-03-06T08:57:17;3.90;71.70
10057;DHT22;5068;51.286;7.518;2024-03-06T08:58:53;3.90;71.50
10057;DHT22;5068;51.286;7.518;2024-03-06T09:00:26;3.90;71.50
10057;DHT22;5068;51.286;7.518;2024-03-06T09:02:12;4.00;71.50
10057;DHT22;5068;51.286;7.518;2024-03-06T09:03:45;4.00;71.70
10057;DHT22;5068;51.286;7.518;2024-03-06T09:05:18;4.10;71.60
10057;DHT22;5068;51.286;7.518;2024-03-06T09:06:52;4.10;71.60
10057;DHT22;5068;51.286;7.518;2024-03-06T09:08:25;4.10;71.50
10057;DHT22;5068;51.286;7.518;2024-03-06T09:09:59;4.20;71.60
10057;DHT22;5068;51.286;7.518;2024-03-06T09:11:32;4.20;71.60
10057;DHT22;5068;51.286;7.518;2024-03-06T09:13:05;4.20;71.60
10057;DHT22;5068;51.286;7.518;2024-03-06T09:14:39;4.20;72.50
10057;DHT22;5068;51.286;7.518;2024-03-06T09:16:11;4.30;71.90
10057;DHT22;5068;51.286;7.518;2024-03-06T09:17:45;4.30;71.90
10057;DHT22;5068;51.286;7.518;2024-03-06T09:19:19;4.40;72.10
10057;DHT22;5068;51.286;7.518;2024-03-06T09:20:51;4.40;72.10
10057;DHT22;5068;51.286;7.518;2024-03-06T09:22:24;4.50;72.20
10057;DHT22;5068;51.286;7.518;2024-03-06T09:23:57;4.50;72.20
10057;DHT22;5068;51.286;7.518;2024-03-06T09:25:31;4.50;72.20
10057;DHT22;5068;51.286;7.518;2024-03-06T09:27:05;4.60;72.30
10057;DHT22;5068;51.286;7.518;2024-03-06T09:28:39;4.60;72.30
10057;DHT22;5068;51.286;7.518;2024-03-06T09:30:13;4.70;72.50
10057;DHT22;5068;51.286;7.518;2024-03-06T09:31:47;4.70;72.60
10057;DHT22;5068;51.286;7.518;2024-03-06T09:33:21;4.80;72.70
10057;DHT22;5068;51.286;7.518;2024-03-06T09:34:54;4.80;72.50
10057;DHT22;5068;51.286;7.518;2024-03-06T09:36:27;4.80;72.30
10057;DHT22;5068;51.286;7.518;2024-03-06T09:38:00;4.90;72.20
10057;DHT22;5068;51.286;7.518;2024-03-06T09:39:35;4.90;72.10
10057;DHT22;5068;51.286;7.518;2024-03-06T09:41:08;5.00;72.20
10057;DHT22;5068;51.286;7.518;2024-03-06T09:42:43;5.00;72.30
10057;DHT22;5068;51.286;7.518;2024-03-06T09:44:16;5.00;72.20
10057;DHT22;5068;51.286;7.518;2024-03-06T09:45:51;5.10;72.40
10057;DHT22;5068;51.286;7.518;2024-03-06T09:47:25;5.10;72.40
10057;DHT22;5068;51.286;7.518;2024-03-06T09:49:04;5.20;72.50
10057;DHT22;5068;51.286;7.518;2024-03-06T09:50:43;5.20;72.40
10057;DHT22;5068;51.286;7.518;2024-03-06T09:52:18;5.30;72.40
10057;DHT22;5068;51.286;7.518;2024-03-06T09:53:51;5.30;72.40
10057;DHT22;5068;51.286;7.518;2024-03-06T09:55:25;5.40;71.30
10057;DHT22;5068;51.286;7.518;2024-03-06T09:56:59;5.40;71.60
10057;DHT22;5068;51.286;7.518;2024-03-06T09:58:33;5.50;72.00
10057;DHT22;5068;51.286;7.518;2024-03-06T10:00:07;5.50;72.10
10057;DHT22;5068;51.286;7.518;2024-03-06T10:01:49;5.60;72.30
10057;DHT22;5068;51.286;7.518;2024-03-06T10:03:22;5.70;72.60
10057;DHT22;5068;51.286;7.518;2024-03-06T10:04:55;5.80;72.80
10057;DHT22;5068;51.286;7.518;2024-03-06T10:06:29;5.90;73.10
10057;DHT22;5068;51.286;7.518;2024-03-06T10:08:04;6.00;73.30
10057;DHT22;5068;51.286;7.518;2024-03-06T10:09:37;6.10;73.40
10057;DHT22;5068;51.286;7.518;2024-03-06T10:11:12;6.20;73.40
10057;DHT22;5068;51.286;7.518;2024-03-06T10:12:46;6.30;73.20
10057;DHT22;5068;51.286;7.518;2024-03-06T10:14:20;6.40;73.00
10057;DHT22;5068;51.286;7.518;2024-03-06T10:15:57;6.60;73.10
10057;DHT22;5068;51.286;7.518;2024-03-06T10:17:31;6.70;73.00
10057;DHT22;5068;51.286;7.518;2024-03-06T10:19:16;6.80;72.50
10057;DHT22;5068;51.286;7.518;2024-03-06T10:20:50;7.00;71.90